Time;durP1;ratioP1;P1;durP2;ratioP2;P2;SDS_P1;SDS_P2;PMS_P1;PMS_P2;Temp;Humidity;BMP_temperature;BMP_pressure;BME280_temperature;BME280_humidity;BME280_pressure;Samples;Min_cycle;Max_cycle;Signal;HPM_P1;HPM_P2
2021/11/26 00:00:53;;;;;;;2.15;1.27;;;16.30;62.40;;;;;;5034940;28;20182;-26
2021/11/26 00:03:18;;;;;;;3.33;1.30;;;16.30;62.20;;;;;;5025417;28;20054;-29
2021/11/26 00:05:44;;;;;;;2.25;1.10;;;16.30;62.20;;;;;;5038711;28;20690;-32
2021/11/26 00:08:10;;;;;;;1.42;1.10;;;16.30;62.10;;;;;;5041957;28;20051;-29
2021/11/26 00:10:35;;;;;;;1.13;1.00;;;16.30;62.00;;;;;;5030093;28;20041;-30
2021/11/26 00:13:04;;;;;;;1.90;0.95;;;16.30;62.00;;;;;;5025349;28;20042;-31
2021/11/26 00:17:57;;;;;;;1.42;1.00;;;16.30;62.00;;;;;;5029317;28;20152;-32
2021/11/26 00:20:22;;;;;;;0.82;0.82;;;16.30;62.00;;;;;;5029489;28;20141;-31
2021/11/26 00:22:48;;;;;;;1.17;0.93;;;16.30;62.10;;;;;;5026633;28;20071;-31
2021/11/26 00:25:14;;;;;;;1.35;1.08;;;16.30;61.90;;;;;;5031464;28;20697;-29
2021/11/26 00:27:40;;;;;;;1.52;1.38;;;16.30;61.90;;;;;;5024937;28;20037;-31
2021/11/26 00:30:06;;;;;;;1.98;1.33;;;16.30;61.80;;;;;;5030837;28;20075;-29
2021/11/26 00:32:32;;;;;;;1.63;0.95;;;16.30;61.80;;;;;;5030604;28;20061;-27
2021/11/26 00:34:57;;;;;;;1.15;0.90;;;16.30;61.70;;;;;;5028758;28;20044;-29
2021/11/26 00:37:23;;;;;;;1.20;1.10;;;16.30;61.80;;;;;;5035825;28;20588;-31
2021/11/26 00:39:49;;;;;;;1.73;1.40;;;16.30;61.80;;;;;;5028515;28;20042;-25
2021/11/26 00:42:14;;;;;;;1.70;1.00;;;16.30;61.70;;;;;;5035161;28;20449;-28
2021/11/26 00:44:40;;;;;;;1.50;1.20;;;16.30;61.70;;;;;;5031038;28;20533;-34
2021/11/26 00:47:05;;;;;;;1.50;1.40;;;16.30;61.70;;;;;;5030747;28;20076;-27
2021/11/26 00:49:31;;;;;;;1.10;1.00;;;16.30;61.70;;;;;;5034091;28;20601;-25
2021/11/26 00:51:57;;;;;;;1.58;1.02;;;16.30;61.70;;;;;;5035466;28;20042;-30
2021/11/26 00:54:22;;;;;;;2.25;1.00;;;16.30;61.70;;;;;;5027829;28;20595;-27
2021/11/26 00:56:48;;;;;;;1.20;1.02;;;16.30;61.70;;;;;;5037146;28;20045;-28
2021/11/26 00:59:13;;;;;;;2.38;1.00;;;16.30;61.70;;;;;;5025048;28;20065;-26
2021/11/26 01:01:39;;;;;;;1.02;0.90;;;16.20;61.70;;;;;;5037163;28;20049;-31
2021/11/26 01:04:05;;;;;;;1.05;1.00;;;16.30;61.70;;;;;;5023563;28;20045;-26
2021/11/26 01:06:32;;;;;;;1.50;1.20;;;16.30;61.70;;;;;;5035157;28;20045;-30
2021/11/26 01:08:58;;;;;;;1.25;1.15;;;16.30;61.70;;;;;;5036445;28;20049;-26
2021/11/26 01:11:23;;;;;;;2.63;1.00;;;16.30;61.60;;;;;;5025114;28;20045;-31
2021/11/26 01:13:49;;;;;;;0.82;0.82;;;16.30;61.60;;;;;;5016712;28;20529;-29
2021/11/26 01:16:15;;;;;;;0.95;0.90;;;16.30;61.60;;;;;;5025495;28;20476;-26
2021/11/26 01:18:40;;;;;;;1.20;1.10;;;16.30;61.60;;;;;;5028247;28;20092;-32
2021/11/26 01:21:07;;;;;;;0.93;0.90;;;16.30;61.60;;;;;;5034280;28;20052;-33
2021/11/26 01:23:34;;;;;;;1.95;1.10;;;16.20;61.60;;;;;;5024551;28;20051;-26
2021/11/26 01:25:59;;;;;;;0.90;0.90;;;16.20;61.60;;;;;;5036627;28;20060;-26
2021/11/26 01:28:25;;;;;;;1.23;1.00;;;16.30;61.60;;;;;;5024601;28;20037;-29
2021/11/26 01:30:51;;;;;;;1.40;1.10;;;16.30;61.60;;;;;;5035902;28;20061;-29
2021/11/26 01:33:17;;;;;;;0.90;0.90;;;16.20;61.60;;;;;;5025730;28;20045;-29
2021/11/26 01:35:43;;;;;;;1.10;1.00;;;16.20;61.50;;;;;;5033038;28;20563;-26
2021/11/26 01:38:09;;;;;;;0.93;0.93;;;16.20;62.40;;;;;;5036437;28;20085;-29
2021/11/26 01:40:36;;;;;;;1.08;0.98;;;16.20;61.50;;;;;;5037623;28;20037;-26
2021/11/26 01:43:02;;;;;;;1.33;1.10;;;16.20;61.50;;;;;;5037989;28;20632;-26
2021/11/26 01:45:28;;;;;;;1.40;1.10;;;16.20;61.50;;;;;;5037430;28;20433;-29
2021/11/26 01:47:53;;;;;;;1.02;0.93;;;16.20;61.60;;;;;;5037756;28;20068;-28
2021/11/26 01:50:20;;;;;;;1.38;1.27;;;16.20;61.60;;;;;;5037379;28;20052;-28
2021/11/26 01:52:45;;;;;;;1.02;1.00;;;16.20;61.50;;;;;;5037961;28;20079;-32
2021/11/26 01:55:11;;;;;;;0.80;0.80;;;16.20;61.50;;;;;;5037938;28;20037;-32
2021/11/26 01:57:37;;;;;;;1.10;1.00;;;16.20;61.50;;;;;;5037168;28;20111;-28
2021/11/26 02:00:06;;;;;;;0.90;0.90;;;16.20;61.50;;;;;;5038055;28;20057;-28
2021/11/26 02:02:32;;;;;;;1.20;0.93;;;16.20;61.50;;;;;;5035636;28;20045;-26
2021/11/26 02:04:57;;;;;;;1.13;0.93;;;16.20;61.50;;;;;;5037671;28;20041;-33
2021/11/26 02:07:23;;;;;;;0.80;0.80;;;16.20;61.50;;;;;;5036438;28;20175;-28
2021/11/26 02:09:48;;;;;;;0.80;0.80;;;16.20;61.50;;;;;;5037740;28;20037;-30
2021/11/26 02:12:14;;;;;;;0.88;0.88;;;16.20;61.40;;;;;;5037577;28;20527;-29
2021/11/26 02:14:40;;;;;;;0.90;0.80;;;16.20;61.40;;;;;;5036851;28;20132;-29
2021/11/26 02:17:05;;;;;;;1.13;1.08;;;16.20;61.50;;;;;;5037030;28;20047;-26
2021/11/26 02:19:31;;;;;;;1.02;1.00;;;16.20;61.50;;;;;;5036873;28;20084;-29
2021/11/26 02:21:56;;;;;;;1.00;0.88;;;16.20;61.40;;;;;;5037138;28;20105;-31
2021/11/26 02:24:22;;;;;;;1.08;1.00;;;16.20;61.50;;;;;;5045066;28;20037;-31
2021/11/26 02:26:49;;;;;;;0.85;0.85;;;16.20;61.50;;;;;;5045142;28;20060;-32
2021/11/26 02:29:15;;;;;;;1.05;1.00;;;16.20;61.50;;;;;;5045225;28;20045;-32
2021/11/26 02:31:41;;;;;;;1.10;1.00;;;16.20;61.50;;;;;;5045340;28;20053;-30
2021/11/26 02:34:06;;;;;;;1.20;1.10;;;16.20;61.40;;;;;;5043679;28;20132;-26
2021/11/26 02:36:32;;;;;;;0.98;0.98;;;16.20;61.40;;;;;;5045740;28;20045;-26
2021/11/26 02:38:57;;;;;;;3.72;1.00;;;16.20;61.40;;;;;;5042449;28;20045;-29
2021/11/26 02:41:23;;;;;;;1.33;1.20;;;16.20;61.40;;;;;;5047486;28;20048;-25
2021/11/26 02:43:49;;;;;;;1.08;1.00;;;16.20;61.40;;;;;;5045271;28;20045;-27
2021/11/26 02:46:14;;;;;;;1.10;0.82;;;16.20;61.40;;;;;;5044771;28;20575;-28
2021/11/26 02:48:40;;;;;;;0.88;0.77;;;16.20;61.30;;;;;;5035252;28;20053;-30
2021/11/26 02:51:05;;;;;;;1.10;1.02;;;16.20;61.30;;;;;;5036983;28;20045;-29
2021/11/26 02:53:31;;;;;;;1.10;1.00;;;16.20;61.40;;;;;;5036151;28;20077;-28
2021/11/26 02:55:57;;;;;;;0.75;0.73;;;16.20;61.30;;;;;;5036695;28;20041;-31
2021/11/26 02:58:23;;;;;;;0.80;0.80;;;16.20;61.30;;;;;;5035999;28;20045;-28
2021/11/26 03:00:51;;;;;;;0.90;0.90;;;16.20;61.30;;;;;;5036913;28;20037;-26
2021/11/26 03:03:16;;;;;;;0.80;0.80;;;16.20;61.30;;;;;;5036788;28;20033;-29
2021/11/26 03:05:42;;;;;;;0.75;0.68;;;16.20;61.30;;;;;;5035706;28;20049;-25
2021/11/26 03:08:08;;;;;;;0.98;0.98;;;16.20;61.30;;;;;;5035918;28;20036;-29
2021/11/26 03:10:33;;;;;;;1.00;0.98;;;16.20;61.30;;;;;;5035757;28;20092;-31
2021/11/26 03:13:01;;;;;;;0.77;0.70;;;16.20;61.30;;;;;;5020478;28;20041;-30
2021/11/26 03:15:27;;;;;;;1.10;0.90;;;16.20;61.30;;;;;;5035987;28;20037;-33
2021/11/26 03:17:54;;;;;;;0.90;0.90;;;16.20;61.30;;;;;;5035893;28;20033;-27
2021/11/26 03:20:20;;;;;;;1.38;0.90;;;16.20;61.30;;;;;;5035806;28;20465;-27
2021/11/26 03:22:46;;;;;;;0.52;0.52;;;16.20;61.20;;;;;;5035956;28;20099;-30
2021/11/26 03:25:11;;;;;;;0.88;0.88;;;16.20;61.20;;;;;;5036201;28;20037;-29
2021/11/26 03:27:37;;;;;;;0.80;0.80;;;16.20;61.20;;;;;;5035213;28;20038;-29
2021/11/26 03:30:03;;;;;;;1.05;1.00;;;16.20;61.20;;;;;;5036268;28;20532;-30
2021/11/26 03:32:29;;;;;;;1.17;1.08;;;16.20;61.30;;;;;;5035659;28;20079;-28
2021/11/26 03:34:55;;;;;;;0.75;0.75;;;16.20;61.20;;;;;;5036105;28;20049;-28
2021/11/26 03:37:20;;;;;;;0.60;0.57;;;16.20;61.20;;;;;;5035351;28;20132;-31
2021/11/26 03:39:46;;;;;;;0.65;0.65;;;16.20;61.20;;;;;;5035541;28;20063;-29
2021/11/26 03:42:12;;;;;;;0.90;0.80;;;16.20;61.20;;;;;;5035777;28;20091;-26
2021/11/26 03:44:37;;;;;;;1.20;1.10;;;16.20;61.20;;;;;;5035221;28;20037;-30
2021/11/26 03:47:03;;;;;;;0.80;0.80;;;16.20;61.20;;;;;;5035323;28;20050;-31
2021/11/26 03:49:28;;;;;;;1.00;0.90;;;16.20;61.20;;;;;;5035158;28;20101;-29
2021/11/26 03:51:54;;;;;;;0.98;0.80;;;16.20;61.20;;;;;;5035505;28;20075;-29
2021/11/26 03:54:20;;;;;;;0.80;0.80;;;16.20;61.20;;;;;;5035820;28;20073;-31
2021/11/26 03:56:45;;;;;;;0.70;0.60;;;16.20;61.20;;;;;;5034580;28;20045;-25
2021/11/26 03:59:11;;;;;;;0.82;0.82;;;16.20;61.20;;;;;;5035544;28;20049;-27
2021/11/26 04:01:36;;;;;;;0.70;0.70;;;16.20;61.20;;;;;;5034755;28;20065;-33
2021/11/26 04:04:02;;;;;;;0.80;0.75;;;16.20;61.20;;;;;;5035724;28;20041;-28
2021/11/26 04:06:28;;;;;;;0.70;0.70;;;16.20;61.20;;;;;;5034379;28;20107;-32
2021/11/26 04:08:53;;;;;;;1.30;1.20;;;16.20;61.20;;;;;;5034973;28;20052;-30
2021/11/26 04:11:19;;;;;;;1.05;0.95;;;16.20;61.30;;;;;;5035426;28;20038;-29
2021/11/26 04:13:44;;;;;;;0.60;0.60;;;16.10;61.10;;;;;;5034438;28;20046;-32
2021/11/26 04:16:13;;;;;;;1.08;0.98;;;16.20;61.20;;;;;;5035475;28;20046;-27
2021/11/26 04:18:40;;;;;;;0.80;0.80;;;16.20;61.20;;;;;;5034009;28;20041;-24
2021/11/26 04:21:06;;;;;;;0.80;0.80;;;16.20;61.20;;;;;;5035357;28;20076;-31
2021/11/26 04:23:31;;;;;;;0.98;0.98;;;16.20;61.20;;;;;;5034208;28;20052;-34
2021/11/26 04:25:57;;;;;;;0.90;0.90;;;16.20;61.20;;;;;;5035324;28;20116;-33
2021/11/26 04:28:23;;;;;;;0.88;0.88;;;16.20;61.20;;;;;;5034509;28;20085;-28
2021/11/26 04:30:49;;;;;;;0.75;0.75;;;16.20;61.10;;;;;;5034381;28;20510;-28
2021/11/26 04:33:14;;;;;;;0.70;0.70;;;16.20;61.20;;;;;;5034988;28;20405;-24
2021/11/26 04:35:40;;;;;;;0.77;0.77;;;16.20;61.20;;;;;;5034307;28;20037;-31
2021/11/26 04:38:05;;;;;;;0.80;0.80;;;16.10;61.10;;;;;;5034385;28;20037;-34
2021/11/26 04:40:31;;;;;;;1.05;1.05;;;16.20;61.20;;;;;;5034326;28;20060;-30
2021/11/26 04:42:56;;;;;;;0.88;0.88;;;16.20;61.30;;;;;;5049972;28;20040;-30
2021/11/26 04:45:22;;;;;;;0.90;0.90;;;16.20;61.20;;;;;;5042902;28;20129;-30
2021/11/26 04:47:48;;;;;;;0.50;0.50;;;16.20;61.20;;;;;;5033748;28;20057;-27
2021/11/26 04:50:14;;;;;;;1.10;1.00;;;16.10;61.10;;;;;;5034719;28;20069;-30
2021/11/26 04:52:39;;;;;;;0.90;0.90;;;16.10;61.10;;;;;;5033890;28;20112;-29
2021/11/26 04:55:06;;;;;;;0.60;0.60;;;16.10;61.10;;;;;;5035022;28;20065;-26
2021/11/26 04:57:31;;;;;;;0.77;0.77;;;16.10;61.10;;;;;;5033910;28;20057;-30
2021/11/26 04:59:57;;;;;;;0.68;0.68;;;16.20;61.10;;;;;;5034515;28;20041;-32
2021/11/26 05:02:23;;;;;;;0.63;0.63;;;16.10;61.00;;;;;;5034703;28;20037;-35
2021/11/26 05:04:48;;;;;;;0.85;0.85;;;16.20;61.10;;;;;;5033916;28;20490;-29
2021/11/26 05:07:16;;;;;;;0.82;0.82;;;16.20;61.10;;;;;;5014322;28;20078;-28
2021/11/26 05:09:42;;;;;;;0.90;0.90;;;16.10;61.00;;;;;;5014123;28;20042;-31
2021/11/26 05:12:07;;;;;;;0.77;0.77;;;16.10;61.00;;;;;;5014413;28;20038;-26
2021/11/26 05:14:34;;;;;;;0.75;0.75;;;16.20;61.00;;;;;;5014311;28;20042;-29
2021/11/26 05:16:59;;;;;;;1.02;1.02;;;16.10;61.00;;;;;;5014475;28;20057;-33
2021/11/26 05:19:25;;;;;;;0.90;0.90;;;16.10;61.00;;;;;;5014473;28;20038;-26
2021/11/26 05:21:51;;;;;;;0.80;0.80;;;16.10;61.10;;;;;;5033220;28;20608;-27
2021/11/26 05:24:16;;;;;;;0.77;0.77;;;16.10;61.00;;;;;;5039453;28;20073;-26
2021/11/26 05:26:42;;;;;;;0.60;0.60;;;16.10;61.10;;;;;;5033391;28;20053;-33
2021/11/26 05:29:08;;;;;;;0.55;0.55;;;16.10;61.10;;;;;;5039016;28;20045;-28
2021/11/26 05:31:36;;;;;;;0.70;0.70;;;16.10;61.10;;;;;;5034322;28;20139;-28
2021/11/26 05:34:08;;;;;;;0.93;0.93;;;16.10;61.00;;;;;;5039492;28;20042;-28
2021/11/26 05:36:33;;;;;;;0.80;0.80;;;16.10;61.00;;;;;;5036042;28;20061;-29
2021/11/26 05:38:59;;;;;;;1.00;1.00;;;16.20;61.00;;;;;;5041386;28;20087;-28
2021/11/26 05:41:25;;;;;;;0.70;0.70;;;16.10;61.00;;;;;;5045395;28;20052;-31
2021/11/26 05:43:50;;;;;;;0.70;0.70;;;16.10;61.00;;;;;;5072967;28;20037;-32
2021/11/26 05:46:16;;;;;;;0.77;0.77;;;16.10;60.90;;;;;;5054473;28;20052;-26
2021/11/26 05:48:42;;;;;;;0.75;0.75;;;16.10;60.90;;;;;;5052797;28;20062;-32
2021/11/26 05:51:07;;;;;;;0.60;0.60;;;16.10;60.90;;;;;;5053734;28;20041;-25
2021/11/26 05:53:33;;;;;;;0.82;0.77;;;16.10;61.00;;;;;;5053053;28;20041;-27
2021/11/26 05:56:00;;;;;;;0.90;0.90;;;16.10;60.90;;;;;;5054131;28;20102;-25
2021/11/26 05:58:26;;;;;;;0.80;0.80;;;16.10;61.00;;;;;;5053502;28;20045;-27
2021/11/26 06:00:52;;;;;;;0.82;0.60;;;16.10;60.90;;;;;;5050462;28;20053;-34
2021/11/26 06:03:17;;;;;;;0.60;0.60;;;16.10;60.90;;;;;;5053274;28;20520;-28
2021/11/26 06:05:43;;;;;;;0.63;0.63;;;16.10;60.90;;;;;;5053043;28;20045;-28
2021/11/26 06:08:09;;;;;;;0.60;0.60;;;16.10;61.10;;;;;;5048153;28;20558;-32
2021/11/26 06:10:34;;;;;;;1.05;0.70;;;16.10;61.30;;;;;;5026338;28;20034;-26
2021/11/26 06:13:00;;;;;;;0.70;0.70;;;16.20;61.30;;;;;;5039634;28;20064;-28
2021/11/26 06:15:25;;;;;;;1.50;0.50;;;16.10;61.40;;;;;;5038241;28;20080;-25
2021/11/26 06:17:51;;;;;;;0.82;0.55;;;16.20;61.40;;;;;;5033075;28;20037;-32
2021/11/26 06:20:17;;;;;;;0.60;0.60;;;16.10;61.40;;;;;;5033676;28;20130;-29
2021/11/26 06:22:42;;;;;;;0.60;0.60;;;16.20;61.30;;;;;;5032902;28;20456;-28
2021/11/26 06:25:10;;;;;;;0.47;0.47;;;16.20;61.40;;;;;;5028748;28;20410;-31
2021/11/26 06:27:35;;;;;;;0.70;0.70;;;16.10;61.30;;;;;;5024560;28;20044;-27
2021/11/26 06:30:01;;;;;;;0.90;0.90;;;16.10;61.20;;;;;;5043412;28;20044;-32
2021/11/26 06:32:27;;;;;;;1.02;0.90;;;16.10;61.20;;;;;;5039443;28;20097;-28
2021/11/26 06:34:52;;;;;;;0.70;0.70;;;16.20;61.30;;;;;;5042866;28;20072;-29
2021/11/26 06:37:18;;;;;;;0.70;0.70;;;16.10;61.10;;;;;;5036804;28;20119;-29
2021/11/26 06:39:44;;;;;;;0.80;0.80;;;16.10;61.10;;;;;;5039381;28;20043;-27
2021/11/26 06:42:09;;;;;;;2.05;0.80;;;16.10;61.30;;;;;;5043746;28;20041;-30
2021/11/26 06:44:38;;;;;;;1.83;0.70;;;16.20;61.30;;;;;;5034829;28;20076;-30
2021/11/26 06:47:04;;;;;;;1.17;0.90;;;16.20;61.30;;;;;;5036794;28;20056;-30
2021/11/26 06:49:29;;;;;;;0.60;0.60;;;16.20;61.30;;;;;;5036810;28;20041;-26
2021/11/26 06:51:55;;;;;;;0.45;0.45;;;16.20;61.30;;;;;;5035830;28;20453;-26
2021/11/26 06:54:21;;;;;;;1.15;0.60;;;16.20;61.40;;;;;;5029698;28;20053;-32
2021/11/26 06:56:46;;;;;;;1.00;0.70;;;16.20;61.40;;;;;;5021348;28;20034;-27
2021/11/26 06:59:12;;;;;;;1.75;0.60;;;16.20;61.40;;;;;;5016389;28;20131;-28
2021/11/26 07:01:37;;;;;;;0.90;0.90;;;16.20;61.30;;;;;;5016039;28;20048;-30
2021/11/26 07:04:04;;;;;;;0.70;0.57;;;16.20;61.30;;;;;;5016936;28;20052;-29
2021/11/26 07:06:29;;;;;;;0.80;0.65;;;16.10;61.20;;;;;;5030223;28;20544;-29
2021/11/26 07:08:55;;;;;;;0.93;0.70;;;16.20;61.30;;;;;;5035604;28;20498;-31
2021/11/26 07:11:20;;;;;;;0.80;0.80;;;16.10;61.20;;;;;;5035028;28;20064;-31
2021/11/26 07:13:46;;;;;;;0.47;0.47;;;16.20;61.30;;;;;;5044716;28;20052;-29
2021/11/26 07:16:11;;;;;;;0.88;0.88;;;16.10;61.10;;;;;;5044365;28;20564;-27
2021/11/26 07:18:37;;;;;;;0.77;0.77;;;16.10;61.10;;;;;;5030700;28;20045;-28
2021/11/26 07:21:03;;;;;;;0.82;0.82;;;16.10;61.10;;;;;;5036399;28;20144;-27
2021/11/26 07:23:28;;;;;;;0.80;0.70;;;16.10;61.10;;;;;;5036524;28;20759;-33
2021/11/26 07:25:54;;;;;;;0.68;0.50;;;16.10;61.10;;;;;;5036353;28;20088;-30
2021/11/26 07:28:22;;;;;;;0.60;0.60;;;16.10;61.10;;;;;;5036827;28;20048;-28
2021/11/26 07:30:47;;;;;;;1.17;0.60;;;16.10;61.10;;;;;;5035580;28;20030;-31
2021/11/26 07:33:13;;;;;;;0.77;0.77;;;16.10;61.10;;;;;;5049343;28;20089;-27
2021/11/26 07:35:40;;;;;;;1.13;0.60;;;16.10;61.00;;;;;;5034045;28;20030;-33
2021/11/26 07:38:06;;;;;;;0.82;0.60;;;16.10;60.90;;;;;;5036531;28;20049;-28
2021/11/26 07:40:32;;;;;;;0.50;0.50;;;16.10;61.00;;;;;;5052509;28;20068;-26
2021/11/26 07:42:57;;;;;;;0.70;0.70;;;16.10;61.00;;;;;;5039988;28;20042;-28
2021/11/26 07:45:24;;;;;;;0.60;0.60;;;16.10;61.00;;;;;;5027797;28;20083;-27
2021/11/26 07:47:50;;;;;;;1.13;0.75;;;16.10;61.10;;;;;;5028846;28;20124;-29
2021/11/26 07:50:16;;;;;;;0.70;0.70;;;16.10;61.10;;;;;;5035241;28;20072;-30
2021/11/26 07:52:42;;;;;;;1.98;0.70;;;16.10;61.20;;;;;;5034874;28;20418;-31
2021/11/26 07:55:08;;;;;;;0.70;0.70;;;16.10;61.20;;;;;;5036236;28;20037;-31
2021/11/26 07:57:35;;;;;;;0.90;0.63;;;16.10;61.20;;;;;;5035395;28;20049;-31
2021/11/26 08:00:02;;;;;;;0.98;0.88;;;16.10;61.30;;;;;;5034535;28;20072;-27
2021/11/26 08:02:27;;;;;;;0.60;0.60;;;16.10;61.30;;;;;;5036122;28;20041;-27
2021/11/26 08:04:53;;;;;;;0.52;0.52;;;16.20;61.30;;;;;;5035223;28;20056;-33
2021/11/26 08:07:18;;;;;;;1.45;0.75;;;16.10;61.30;;;;;;5035786;28;20041;-31
2021/11/26 08:09:44;;;;;;;1.13;0.70;;;16.10;61.40;;;;;;5034970;28;20398;-32
2021/11/26 08:12:10;;;;;;;0.65;0.65;;;16.10;61.30;;;;;;5035468;28;20057;-27
2021/11/26 08:14:35;;;;;;;0.60;0.60;;;16.10;61.30;;;;;;5036033;28;20041;-25
2021/11/26 08:17:01;;;;;;;0.63;0.60;;;16.10;61.40;;;;;;5035085;28;20128;-26
2021/11/26 08:19:26;;;;;;;1.05;0.73;;;16.10;61.30;;;;;;5035485;28;20063;-26
2021/11/26 08:21:53;;;;;;;0.90;0.88;;;16.10;61.40;;;;;;5034789;28;20045;-28
2021/11/26 08:24:19;;;;;;;0.55;0.50;;;16.10;61.40;;;;;;5035609;28;20041;-26
2021/11/26 08:26:45;;;;;;;0.70;0.60;;;16.10;61.40;;;;;;5035137;28;20057;-33
2021/11/26 08:29:11;;;;;;;0.73;0.70;;;16.10;61.30;;;;;;5035593;28;20297;-28
2021/11/26 08:31:37;;;;;;;1.23;0.70;;;16.10;61.40;;;;;;5035350;28;20049;-29
2021/11/26 08:34:03;;;;;;;0.70;0.70;;;16.10;61.30;;;;;;5034896;28;20128;-27
2021/11/26 08:36:29;;;;;;;0.50;0.50;;;16.10;61.30;;;;;;5035423;28;20694;-29
2021/11/26 08:38:55;;;;;;;0.70;0.70;;;16.10;61.30;;;;;;5034478;28;20514;-34
2021/11/26 08:41:20;;;;;;;0.52;0.50;;;16.10;61.30;;;;;;5036536;28;20128;-25
2021/11/26 08:43:46;;;;;;;0.50;0.50;;;16.10;61.30;;;;;;5054581;28;20068;-31
2021/11/26 08:46:12;;;;;;;0.63;0.63;;;16.10;61.30;;;;;;5036146;28;20560;-29
2021/11/26 08:48:37;;;;;;;0.70;0.65;;;16.10;61.20;;;;;;5035242;28;20041;-27
2021/11/26 08:51:03;;;;;;;1.58;0.60;;;16.10;61.20;;;;;;5033772;28;20038;-28
2021/11/26 08:53:30;;;;;;;1.05;0.57;;;16.10;61.10;;;;;;5032898;28;20042;-32
2021/11/26 08:55:56;;;;;;;0.65;0.60;;;16.10;61.20;;;;;;5032913;28;20037;-26
2021/11/26 08:58:22;;;;;;;0.68;0.68;;;16.10;61.10;;;;;;5033711;28;20037;-30
2021/11/26 09:00:47;;;;;;;0.80;0.68;;;16.10;61.20;;;;;;5031203;28;20049;-33
2021/11/26 09:03:13;;;;;;;0.57;0.57;;;16.10;61.10;;;;;;5023714;28;20180;-30
2021/11/26 09:05:39;;;;;;;0.57;0.57;;;16.10;61.10;;;;;;5027217;28;20041;-32
2021/11/26 09:08:05;;;;;;;0.60;0.60;;;16.10;61.00;;;;;;5033985;28;20042;-27
2021/11/26 09:10:33;;;;;;;0.68;0.60;;;16.10;60.90;;;;;;5040929;28;20056;-34
2021/11/26 09:12:59;;;;;;;0.60;0.60;;;16.10;61.00;;;;;;5050560;28;20041;-27
2021/11/26 09:15:25;;;;;;;0.60;0.50;;;16.10;61.00;;;;;;5040711;28;20056;-24
2021/11/26 09:17:51;;;;;;;0.60;0.60;;;16.10;60.90;;;;;;5035799;28;20038;-28
2021/11/26 09:20:17;;;;;;;0.60;0.60;;;16.10;60.90;;;;;;5039665;28;20108;-26
2021/11/26 09:22:42;;;;;;;0.50;0.50;;;16.10;60.90;;;;;;5038320;28;20502;-25
2021/11/26 09:25:08;;;;;;;0.82;0.82;;;16.10;60.90;;;;;;5041716;28;20091;-29
2021/11/26 09:27:34;;;;;;;0.70;0.60;;;16.10;60.90;;;;;;5020475;28;20045;-30
2021/11/26 09:30:00;;;;;;;0.70;0.70;;;16.10;60.80;;;;;;5023688;28;20064;-24
2021/11/26 09:32:25;;;;;;;0.60;0.55;;;16.10;61.70;;;;;;5018379;28;20865;-29
2021/11/26 09:34:51;;;;;;;0.45;0.45;;;16.10;60.80;;;;;;5014234;28;20137;-29
2021/11/26 09:37:17;;;;;;;1.77;0.60;;;16.10;60.80;;;;;;5014900;28;20057;-28
2021/11/26 09:39:42;;;;;;;0.50;0.50;;;16.10;60.70;;;;;;5015156;28;20050;-30
2021/11/26 09:42:08;;;;;;;2.03;0.73;;;16.20;60.80;;;;;;5022602;28;20151;-32
2021/11/26 09:44:35;;;;;;;0.50;0.50;;;16.10;60.70;;;;;;5041164;28;20072;-26
2021/11/26 09:47:02;;;;;;;0.63;0.60;;;16.10;60.70;;;;;;5035212;28;20097;-25
2021/11/26 09:49:27;;;;;;;0.50;0.50;;;16.10;60.70;;;;;;5034632;28;20064;-29
2021/11/26 09:51:53;;;;;;;0.52;0.52;;;16.10;61.50;;;;;;5032131;28;20041;-28
2021/11/26 09:54:19;;;;;;;0.85;0.60;;;16.10;60.70;;;;;;5034433;28;20084;-26
2021/11/26 09:56:44;;;;;;;0.60;0.60;;;16.10;60.70;;;;;;5034861;28;20103;-27
2021/11/26 09:59:10;;;;;;;4.00;0.57;;;16.10;60.70;;;;;;5044832;28;20053;-28
2021/11/26 10:01:35;;;;;;;0.47;0.47;;;16.10;60.70;;;;;;5038284;28;20049;-32
2021/11/26 10:04:01;;;;;;;0.50;0.50;;;16.10;60.70;;;;;;5037395;28;20045;-27
2021/11/26 10:06:37;;;;;;;0.50;0.50;;;16.10;60.70;;;;;;5029744;28;20042;-27
2021/11/26 10:09:05;;;;;;;0.88;0.60;;;16.10;60.60;;;;;;5035440;28;20519;-32
2021/11/26 10:11:33;;;;;;;0.60;0.60;;;16.10;60.60;;;;;;5037860;28;20090;-25
2021/11/26 10:13:58;;;;;;;0.90;0.60;;;16.10;60.70;;;;;;5045660;28;20038;-32
2021/11/26 10:16:24;;;;;;;0.68;0.68;;;16.10;60.70;;;;;;5052479;28;20044;-30
2021/11/26 10:18:50;;;;;;;0.65;0.65;;;16.10;60.60;;;;;;5057104;28;20049;-29
2021/11/26 10:21:16;;;;;;;0.50;0.50;;;16.10;60.60;;;;;;5049654;28;20501;-27
2021/11/26 10:23:46;;;;;;;0.70;0.70;;;16.10;60.60;;;;;;5046151;28;20413;-29
2021/11/26 10:26:16;;;;;;;0.57;0.50;;;16.10;60.60;;;;;;5045278;28;20050;-29
2021/11/26 10:28:45;;;;;;;0.57;0.57;;;16.10;60.60;;;;;;5037984;28;20048;-29
2021/11/26 10:31:27;;;;;;;0.63;0.63;;;16.10;60.50;;;;;;5037262;28;20441;-31
2021/11/26 10:33:54;;;;;;;0.80;0.80;;;16.10;60.50;;;;;;5037003;28;20038;-33
2021/11/26 10:36:20;;;;;;;0.70;0.70;;;16.10;60.50;;;;;;5036285;28;20044;-28
2021/11/26 10:38:45;;;;;;;0.50;0.50;;;16.10;60.50;;;;;;5070573;28;20037;-30
2021/11/26 10:41:13;;;;;;;1.45;0.80;;;16.10;60.40;;;;;;5075887;28;20074;-31
2021/11/26 10:44:33;;;;;;;0.70;0.70;;;16.10;60.50;;;;;;5041740;28;20539;-24
2021/11/26 10:59:50;;;;;;;0.60;0.60;;;16.10;60.50;;;;;;5047656;28;20060;-29
2021/11/26 11:02:27;;;;;;;0.60;0.60;;;16.10;60.40;;;;;;5051519;28;20042;-26
2021/11/26 11:04:52;;;;;;;0.60;0.60;;;16.10;60.40;;;;;;5029098;28;20041;-28
2021/11/26 11:07:18;;;;;;;0.50;0.50;;;16.10;61.20;;;;;;5041646;28;20510;-30
2021/11/26 11:09:51;;;;;;;0.45;0.45;;;16.20;60.40;;;;;;5037140;28;20403;-27
2021/11/26 11:12:17;;;;;;;0.50;0.50;;;16.10;60.40;;;;;;5047925;28;20052;-28
2021/11/26 11:14:53;;;;;;;1.25;0.82;;;16.10;60.30;;;;;;5027138;28;20037;-29
2021/11/26 11:17:24;;;;;;;0.60;0.60;;;16.10;60.40;;;;;;5023319;28;20052;-28
2021/11/26 11:19:52;;;;;;;0.70;0.70;;;16.10;60.40;;;;;;5043532;28;20488;-28
2021/11/26 11:22:17;;;;;;;0.57;0.50;;;16.10;60.30;;;;;;5033416;28;20128;-31
2021/11/26 11:24:43;;;;;;;0.63;0.63;;;16.10;60.30;;;;;;5034749;28;20083;-26
2021/11/26 11:27:09;;;;;;;0.77;0.60;;;16.10;60.30;;;;;;5018477;28;20115;-31
2021/11/26 11:29:35;;;;;;;1.00;0.63;;;16.20;60.30;;;;;;5025406;28;20069;-27
2021/11/26 11:32:01;;;;;;;0.70;0.70;;;16.10;60.30;;;;;;5025286;28;20042;-29
2021/11/26 11:34:29;;;;;;;0.50;0.50;;;16.10;60.30;;;;;;5036184;28;20097;-31
2021/11/26 11:36:59;;;;;;;0.73;0.73;;;16.10;60.40;;;;;;5033270;28;20123;-26
2021/11/26 11:39:25;;;;;;;0.70;0.70;;;16.20;60.30;;;;;;5034618;28;20128;-30
2021/11/26 11:41:53;;;;;;;0.70;0.70;;;16.10;60.30;;;;;;5033544;28;20083;-28
2021/11/26 11:44:27;;;;;;;0.52;0.50;;;16.10;60.30;;;;;;5040742;28;20059;-29
2021/11/26 11:46:57;;;;;;;1.08;0.90;;;16.10;60.30;;;;;;5049368;28;20053;-32
2021/11/26 11:49:31;;;;;;;0.60;0.60;;;16.20;60.50;;;;;;5040101;28;20049;-28
2021/11/26 11:52:01;;;;;;;0.63;0.63;;;16.20;60.50;;;;;;5056857;28;20074;-31
2021/11/26 11:54:40;;;;;;;1.50;0.70;;;16.10;60.70;;;;;;5029328;28;20073;-29
2021/11/26 11:57:06;;;;;;;2.85;0.57;;;16.20;61.30;;;;;;4683149;28;10000308;-31
2021/11/26 11:59:37;;;;;;;2.65;0.73;;;16.20;61.30;;;;;;5024443;28;20109;-30
2021/11/26 12:02:04;;;;;;;2.35;0.85;;;16.20;61.60;;;;;;5022034;28;20140;-26
2021/11/26 12:04:43;;;;;;;4.55;0.80;;;16.20;61.40;;;;;;5029098;28;20030;-29
2021/11/26 12:07:09;;;;;;;2.17;1.00;;;16.20;61.30;;;;;;5030395;28;20426;-29
2021/11/26 12:09:35;;;;;;;1.20;0.80;;;16.20;61.20;;;;;;5030322;28;20025;-26
2021/11/26 12:12:09;;;;;;;1.05;0.68;;;16.20;61.20;;;;;;5032948;28;20303;-26
2021/11/26 12:14:52;;;;;;;0.93;0.93;;;16.20;61.10;;;;;;5031751;28;20021;-30
2021/11/26 12:17:26;;;;;;;0.95;0.63;;;16.20;61.10;;;;;;5032378;28;20156;-27
2021/11/26 12:20:10;;;;;;;0.47;0.47;;;16.20;61.10;;;;;;5030035;28;20067;-30
2021/11/26 12:23:05;;;;;;;0.88;0.80;;;16.20;61.10;;;;;;5033048;28;20063;-29
2021/11/26 12:28:24;;;;;;;0.70;0.70;;;16.20;61.10;;;;;;5034281;28;20286;-29
2021/11/26 12:31:00;;;;;;;1.08;0.90;;;16.20;61.20;;;;;;5029063;28;20038;-25
2021/11/26 12:33:26;;;;;;;1.60;0.98;;;16.20;61.10;;;;;;5031700;28;20042;-31
2021/11/26 12:35:59;;;;;;;1.20;0.95;;;16.20;61.30;;;;;;5036905;28;20355;-31
2021/11/26 12:38:57;;;;;;;0.95;0.93;;;16.20;61.30;;;;;;5036696;28;20024;-26
2021/11/26 12:41:30;;;;;;;1.95;0.80;;;16.30;61.30;;;;;;5008612;28;20037;-28
2021/11/26 12:43:56;;;;;;;1.80;0.70;;;16.20;61.30;;;;;;5028007;28;20033;-25
2021/11/26 12:46:24;;;;;;;0.77;0.60;;;16.20;61.30;;;;;;5016875;28;20083;-31
2021/11/26 12:51:49;;;;;;;0.82;0.82;;;16.20;61.30;;;;;;5033592;28;20053;-26
2021/11/26 12:54:25;;;;;;;0.77;0.60;;;16.20;61.30;;;;;;5032187;28;20679;-32
2021/11/26 12:56:50;;;;;;;0.65;0.65;;;16.20;61.30;;;;;;5032867;28;20136;-28
2021/11/26 12:59:27;;;;;;;1.23;0.80;;;16.20;61.30;;;;;;5032148;28;20109;-27
2021/11/26 13:01:52;;;;;;;2.65;0.75;;;16.20;61.30;;;;;;5032399;28;20108;-28
2021/11/26 13:04:18;;;;;;;1.52;1.00;;;16.30;61.40;;;;;;5032283;28;20060;-26